Aviation Digital Data Service (ADDS)

Output produced by TAFs form (0523 UTC 01 November 2014)
found at http://www.aviationweather.gov/adds/tafs/
 
KRIC 312341Z 0100/0124 04004KT P6SM BKN045 BKN200 
     FM011300 36009KT P6SM BKN025 
     FM011500 36015G20KT P6SM BKN030 
     FM011800 36018G25KT 6SM -DZ BR BKN015